Time;durP1;ratioP1;P1;durP2;ratioP2;P2;SDS_P1;SDS_P2;PMS_P1;PMS_P2;Temp;Humidity;BMP_temperature;BMP_pressure;BME280_temperature;BME280_humidity;BME280_pressure;Samples;Min_cycle;Max_cycle;Signal;HPM_P1;HPM_P2
2021/12/10 00:02:01;;;;;;;2.77;1.37;;;6.40;99.90;;;;;;5078249;28;20178;-78
2021/12/10 00:04:31;;;;;;;3.00;1.57;;;6.10;99.90;;;;;;5111206;28;20244;-78
2021/12/10 00:07:06;;;;;;;4.07;1.27;;;6.10;99.90;;;;;;5110975;28;20593;-78
2021/12/10 00:09:44;;;;;;;3.90;1.30;;;6.00;99.90;;;;;;5111346;28;20297;-80
2021/12/10 00:12:20;;;;;;;3.70;1.60;;;6.00;99.90;;;;;;5078372;28;20542;-81
2021/12/10 00:14:47;;;;;;;3.50;1.50;;;6.00;99.90;;;;;;5113513;28;20162;-77
2021/12/10 00:17:16;;;;;;;2.67;1.17;;;6.10;99.90;;;;;;5111081;28;20191;-79
2021/12/10 00:19:48;;;;;;;3.00;1.00;;;6.00;99.90;;;;;;5111711;28;20641;-81
2021/12/10 00:22:33;;;;;;;5.27;1.20;;;6.00;99.90;;;;;;5112341;28;20164;-79
2021/12/10 00:24:59;;;;;;;4.40;1.00;;;6.00;99.90;;;;;;5110854;28;20650;-81
2021/12/10 00:27:29;;;;;;;3.50;1.43;;;6.00;99.90;;;;;;5093669;28;20186;-78
2021/12/10 00:30:05;;;;;;;4.07;1.30;;;6.10;99.90;;;;;;5111905;28;20163;-80
2021/12/10 00:32:36;;;;;;;4.60;1.40;;;5.90;99.90;;;;;;5110542;28;20206;-82
2021/12/10 00:35:23;;;;;;;3.00;1.10;;;6.00;99.90;;;;;;5094387;28;20167;-81
2021/12/10 00:37:49;;;;;;;3.30;1.20;;;5.90;99.90;;;;;;5111556;28;20171;-78
2021/12/10 00:40:17;;;;;;;2.17;1.00;;;5.80;99.90;;;;;;5093457;28;20551;-77
2021/12/10 00:42:43;;;;;;;2.80;1.10;;;5.90;99.90;;;;;;5111234;28;20595;-81
2021/12/10 00:45:13;;;;;;;2.07;1.10;;;5.90;99.90;;;;;;5110702;28;20480;-78
2021/12/10 00:47:39;;;;;;;2.47;1.00;;;6.10;99.90;;;;;;5110395;28;20175;-79
2021/12/10 00:50:09;;;;;;;4.10;1.20;;;6.10;99.90;;;;;;5109688;28;20264;-78
2021/12/10 00:52:35;;;;;;;1.20;1.00;;;6.00;99.90;;;;;;5112308;28;20547;-80
2021/12/10 00:55:01;;;;;;;2.67;0.87;;;5.90;99.90;;;;;;5093402;28;20174;-80
2021/12/10 00:57:27;;;;;;;2.13;1.13;;;5.90;99.90;;;;;;5110919;28;20167;-77
2021/12/10 00:59:53;;;;;;;7.43;1.30;;;5.90;99.90;;;;;;5093390;28;20274;-77
2021/12/10 01:02:24;;;;;;;4.97;1.30;;;5.90;99.90;;;;;;5110103;28;20179;-77
2021/12/10 01:04:54;;;;;;;4.83;1.17;;;6.00;99.90;;;;;;5110403;28;20193;-80
2021/12/10 01:07:23;;;;;;;3.17;1.63;;;5.80;99.90;;;;;;5093308;28;20179;-78
2021/12/10 01:09:51;;;;;;;5.53;1.90;;;5.60;99.90;;;;;;5111504;28;20175;-78
2021/12/10 01:12:31;;;;;;;7.33;1.40;;;5.60;99.90;;;;;;5092720;28;20282;-77
2021/12/10 01:15:49;;;;;;;4.60;1.80;;;5.70;99.90;;;;;;5092918;28;20163;-77
2021/12/10 01:24:14;;;;;;;3.53;1.30;;;5.50;99.90;;;;;;5102401;28;20531;-80
2021/12/10 01:29:13;;;;;;;1.47;0.97;;;5.60;99.90;;;;;;5110565;28;20171;-80
2021/12/10 01:31:40;;;;;;;4.60;1.00;;;5.50;99.90;;;;;;5093224;28;20175;-80
2021/12/10 01:34:07;;;;;;;5.37;1.40;;;5.40;99.90;;;;;;5111385;28;20548;-80
2021/12/10 01:36:33;;;;;;;4.03;1.67;;;5.40;99.90;;;;;;5110335;28;20179;-80
2021/12/10 01:38:59;;;;;;;3.43;1.40;;;5.40;99.90;;;;;;5111432;28;20246;-77
2021/12/10 01:41:32;;;;;;;3.23;1.43;;;5.50;99.90;;;;;;5110133;28;20641;-78
2021/12/10 01:44:03;;;;;;;2.33;1.23;;;5.50;99.90;;;;;;5102175;28;20195;-81
2021/12/10 01:46:32;;;;;;;3.83;1.20;;;5.40;99.90;;;;;;5110265;28;20198;-81
2021/12/10 01:49:03;;;;;;;2.77;1.20;;;5.30;99.90;;;;;;5110015;28;20177;-80
2021/12/10 01:51:32;;;;;;;1.57;0.90;;;5.30;99.90;;;;;;5093093;28;20642;-79
2021/12/10 01:54:05;;;;;;;2.47;0.90;;;5.30;99.90;;;;;;5110306;28;20618;-78
2021/12/10 01:56:33;;;;;;;4.07;0.90;;;5.00;99.90;;;;;;5110873;28;20205;-77
2021/12/10 01:59:00;;;;;;;3.87;1.23;;;5.10;99.90;;;;;;5093373;28;20179;-78
2021/12/10 02:01:42;;;;;;;1.93;0.80;;;5.20;99.90;;;;;;5078909;28;20576;-78
2021/12/10 02:04:11;;;;;;;2.47;1.13;;;5.10;99.90;;;;;;5114203;28;20251;-80
2021/12/10 02:06:38;;;;;;;7.63;1.20;;;5.20;99.90;;;;;;5096941;28;20658;-78
2021/12/10 02:09:05;;;;;;;1.63;1.03;;;5.20;99.90;;;;;;5078613;28;20179;-77
2021/12/10 02:11:34;;;;;;;3.00;1.07;;;5.30;99.90;;;;;;5113669;28;20240;-81
2021/12/10 02:13:59;;;;;;;3.07;0.93;;;5.20;99.90;;;;;;5115051;28;20230;-80
2021/12/10 02:16:25;;;;;;;3.90;1.10;;;5.30;99.90;;;;;;5114714;28;20191;-77
2021/12/10 02:18:52;;;;;;;0.93;0.70;;;5.30;99.90;;;;;;5096294;28;20176;-80
2021/12/10 02:21:24;;;;;;;2.63;0.90;;;5.40;99.90;;;;;;5096945;28;20171;-77
2021/12/10 02:23:57;;;;;;;2.97;1.37;;;5.30;99.90;;;;;;5096755;28;20183;-77
2021/12/10 02:26:33;;;;;;;0.97;0.70;;;5.30;99.90;;;;;;5112860;28;20741;-78
2021/12/10 02:29:00;;;;;;;3.70;0.97;;;5.30;99.90;;;;;;5113191;28;20236;-77
2021/12/10 02:31:27;;;;;;;2.33;0.90;;;5.30;99.90;;;;;;5113406;28;20175;-78
2021/12/10 02:33:55;;;;;;;2.70;0.80;;;4.90;99.90;;;;;;5096159;28;20203;-78
2021/12/10 02:36:21;;;;;;;2.70;1.00;;;5.00;99.90;;;;;;5113368;28;20179;-80
2021/12/10 02:38:50;;;;;;;1.97;0.83;;;4.90;99.90;;;;;;5114594;28;20483;-79
2021/12/10 02:41:18;;;;;;;1.40;0.80;;;4.80;99.90;;;;;;5113245;28;20258;-78
2021/12/10 02:43:45;;;;;;;4.20;1.00;;;4.80;99.90;;;;;;5113219;28;20190;-80
2021/12/10 02:46:12;;;;;;;5.33;0.90;;;5.00;99.90;;;;;;5114168;28;20637;-79
2021/12/10 02:48:38;;;;;;;2.83;1.23;;;4.90;99.90;;;;;;5095608;28;20595;-77
2021/12/10 02:51:06;;;;;;;3.90;1.00;;;4.80;99.90;;;;;;5112624;28;20362;-80
2021/12/10 02:53:36;;;;;;;3.70;1.13;;;4.70;99.90;;;;;;5114021;28;20198;-76
2021/12/10 02:56:04;;;;;;;1.57;0.90;;;4.70;99.90;;;;;;5113828;28;20170;-76
2021/12/10 02:58:31;;;;;;;3.17;0.90;;;4.80;99.90;;;;;;5095703;28;20175;-77
2021/12/10 03:01:03;;;;;;;7.07;1.13;;;4.80;99.90;;;;;;5096001;28;20186;-78
2021/12/10 03:03:29;;;;;;;1.40;0.67;;;5.00;99.90;;;;;;5125536;27;20183;-79
2021/12/10 03:05:55;;;;;;;4.33;0.97;;;4.90;99.90;;;;;;5132620;27;20200;-79
2021/12/10 03:08:21;;;;;;;1.97;0.83;;;4.70;99.90;;;;;;5133047;27;20529;-77
2021/12/10 03:10:47;;;;;;;2.60;0.70;;;4.70;99.90;;;;;;5127626;27;20182;-79
2021/12/10 03:13:14;;;;;;;2.53;0.70;;;4.70;99.90;;;;;;5111344;28;20203;-76
2021/12/10 03:15:40;;;;;;;2.47;1.00;;;4.70;99.90;;;;;;5113304;28;20167;-80
2021/12/10 03:18:09;;;;;;;4.03;1.00;;;4.90;99.90;;;;;;5078768;28;20472;-78
2021/12/10 03:20:36;;;;;;;2.27;0.80;;;4.90;99.90;;;;;;5111609;27;20246;-77
2021/12/10 03:23:04;;;;;;;3.10;0.97;;;4.90;99.90;;;;;;5096468;28;20209;-78
2021/12/10 03:25:31;;;;;;;2.80;0.87;;;4.80;99.90;;;;;;5112751;28;20194;-79
2021/12/10 03:27:57;;;;;;;2.00;0.97;;;4.50;99.90;;;;;;5112368;28;20183;-79
2021/12/10 03:30:27;;;;;;;2.67;1.00;;;4.70;99.90;;;;;;5094732;28;20190;-80
2021/12/10 03:32:54;;;;;;;2.00;0.90;;;4.60;99.90;;;;;;5131111;27;20237;-80
2021/12/10 03:35:25;;;;;;;1.80;0.93;;;4.80;99.90;;;;;;5098103;27;20182;-81
2021/12/10 03:37:52;;;;;;;2.40;0.90;;;4.80;99.90;;;;;;5115273;27;20234;-78
2021/12/10 03:40:19;;;;;;;3.03;0.83;;;4.80;99.90;;;;;;5126625;27;20206;-80
2021/12/10 03:42:47;;;;;;;1.03;0.70;;;4.70;99.90;;;;;;5111524;28;20197;-78
2021/12/10 03:45:15;;;;;;;1.10;0.80;;;4.80;99.90;;;;;;5094664;28;20187;-81
2021/12/10 03:47:42;;;;;;;2.27;1.10;;;4.80;99.90;;;;;;5110322;28;20649;-78
2021/12/10 03:50:10;;;;;;;1.60;1.00;;;4.60;99.90;;;;;;5094348;28;20361;-78
2021/12/10 03:52:36;;;;;;;2.50;1.00;;;4.30;99.90;;;;;;5112732;28;20194;-78
2021/12/10 03:55:04;;;;;;;3.87;1.00;;;4.20;99.90;;;;;;5111655;28;20202;-76
2021/12/10 03:57:29;;;;;;;1.83;0.90;;;4.30;99.90;;;;;;5110988;28;20243;-80
2021/12/10 03:59:55;;;;;;;1.60;0.80;;;4.50;99.90;;;;;;5094523;28;20190;-78
2021/12/10 04:02:24;;;;;;;2.97;0.90;;;4.60;99.90;;;;;;5094529;28;20275;-80
2021/12/10 04:04:51;;;;;;;2.03;1.07;;;4.70;99.90;;;;;;5110776;28;20179;-81
2021/12/10 04:07:20;;;;;;;1.60;1.00;;;4.90;99.90;;;;;;5112322;28;20175;-77
2021/12/10 04:09:48;;;;;;;6.40;1.73;;;4.90;99.90;;;;;;5110874;28;20206;-77
2021/12/10 04:12:13;;;;;;;4.17;1.40;;;4.80;99.90;;;;;;5112055;28;20832;-75
2021/12/10 04:14:42;;;;;;;2.17;1.00;;;4.80;99.90;;;;;;5076557;28;20183;-76
2021/12/10 04:17:09;;;;;;;2.50;1.13;;;4.90;99.90;;;;;;5093651;28;20638;-79
2021/12/10 04:19:36;;;;;;;2.20;1.30;;;4.90;99.90;;;;;;5093687;28;20175;-77
2021/12/10 04:22:04;;;;;;;3.07;1.30;;;5.00;99.90;;;;;;5111909;28;20179;-79
2021/12/10 04:24:33;;;;;;;3.37;1.23;;;4.70;99.90;;;;;;5110368;28;20179;-79
2021/12/10 04:27:00;;;;;;;2.27;1.30;;;4.70;99.90;;;;;;5110488;28;20634;-77
2021/12/10 04:29:26;;;;;;;4.40;1.40;;;4.70;99.90;;;;;;5110066;28;20258;-79
2021/12/10 04:31:54;;;;;;;2.60;1.33;;;4.70;99.90;;;;;;5111018;28;20258;-80
2021/12/10 04:34:22;;;;;;;2.07;1.07;;;4.70;99.90;;;;;;5111883;28;20179;-79
2021/12/10 04:36:49;;;;;;;2.43;1.70;;;4.60;99.90;;;;;;5110755;28;20175;-80
2021/12/10 04:39:15;;;;;;;5.87;1.57;;;4.50;99.90;;;;;;5110392;28;20254;-80
2021/12/10 04:41:41;;;;;;;1.23;1.13;;;4.60;99.90;;;;;;5111666;28;20167;-78
2021/12/10 04:44:07;;;;;;;3.83;1.57;;;4.50;99.90;;;;;;5110192;28;20259;-80
2021/12/10 04:46:33;;;;;;;1.73;1.40;;;4.50;99.90;;;;;;5092944;28;20183;-76
2021/12/10 04:49:06;;;;;;;3.80;1.57;;;4.50;99.90;;;;;;5110688;28;20247;-81
2021/12/10 04:51:36;;;;;;;4.47;1.80;;;4.50;99.90;;;;;;5110360;28;20166;-77
2021/12/10 04:54:04;;;;;;;2.10;1.40;;;4.60;99.90;;;;;;5111751;28;20199;-80
2021/12/10 04:56:31;;;;;;;4.57;1.60;;;4.60;99.90;;;;;;5111492;28;20186;-81
2021/12/10 04:58:59;;;;;;;5.03;1.90;;;4.30;99.90;;;;;;5111483;28;20171;-77
2021/12/10 05:01:26;;;;;;;3.00;1.43;;;4.10;99.90;;;;;;5109770;28;20202;-80
2021/12/10 05:03:52;;;;;;;3.67;1.50;;;4.20;99.90;;;;;;5093123;28;20199;-80
2021/12/10 05:06:18;;;;;;;5.63;1.53;;;4.20;99.90;;;;;;5092631;28;20179;-80
2021/12/10 05:08:44;;;;;;;3.97;1.57;;;4.30;99.90;;;;;;5111225;28;20171;-77
2021/12/10 05:11:11;;;;;;;4.60;1.50;;;4.50;99.90;;;;;;5111452;28;20677;-81
2021/12/10 05:13:40;;;;;;;3.17;1.83;;;4.50;99.90;;;;;;5110072;28;20236;-79
2021/12/10 05:16:07;;;;;;;5.23;1.70;;;4.50;99.90;;;;;;5109590;28;20190;-77
2021/12/10 05:18:37;;;;;;;4.40;1.67;;;4.50;99.90;;;;;;5111259;28;20654;-77
2021/12/10 05:21:05;;;;;;;4.53;1.60;;;4.50;99.90;;;;;;5110096;28;20171;-76
2021/12/10 05:23:32;;;;;;;4.17;2.07;;;4.40;99.90;;;;;;5110322;28;20595;-81
2021/12/10 05:25:58;;;;;;;3.43;2.13;;;4.40;99.90;;;;;;5109697;28;20194;-79
2021/12/10 05:28:23;;;;;;;7.13;2.37;;;4.40;99.90;;;;;;5110896;28;20278;-80
2021/12/10 05:30:54;;;;;;;3.60;2.40;;;4.30;99.90;;;;;;5110996;28;20982;-77
2021/12/10 05:33:21;;;;;;;4.50;2.43;;;4.40;99.90;;;;;;5110900;28;20562;-76
2021/12/10 05:35:48;;;;;;;4.97;2.40;;;4.60;99.90;;;;;;5111163;28;20591;-77
2021/12/10 05:38:17;;;;;;;4.23;2.90;;;4.50;99.90;;;;;;5113638;28;20206;-80
2021/12/10 05:40:47;;;;;;;9.83;2.30;;;4.50;99.90;;;;;;5115257;28;20228;-76
2021/12/10 05:43:13;;;;;;;2.70;2.07;;;4.40;99.90;;;;;;5080104;28;20248;-76
2021/12/10 05:45:40;;;;;;;3.40;2.10;;;4.50;99.90;;;;;;5114652;28;20645;-81
2021/12/10 05:48:07;;;;;;;4.97;2.50;;;4.50;99.90;;;;;;5113673;28;20182;-77
2021/12/10 05:50:34;;;;;;;6.30;2.77;;;4.50;99.90;;;;;;5113563;28;20172;-77
2021/12/10 05:53:02;;;;;;;3.87;2.53;;;4.40;99.90;;;;;;5113082;28;20564;-81
2021/12/10 05:55:28;;;;;;;3.73;2.17;;;4.40;99.90;;;;;;5079324;28;20713;-76
2021/12/10 05:57:54;;;;;;;3.83;2.40;;;4.40;99.90;;;;;;5114779;28;20258;-79
2021/12/10 06:00:27;;;;;;;4.17;2.27;;;4.20;99.90;;;;;;5114444;28;20167;-77
2021/12/10 06:02:53;;;;;;;5.57;2.57;;;3.90;99.90;;;;;;5113516;28;20175;-77
2021/12/10 06:05:20;;;;;;;5.57;2.93;;;3.90;99.90;;;;;;5113064;28;20163;-79
2021/12/10 06:07:47;;;;;;;3.73;2.40;;;3.90;99.90;;;;;;5114221;28;20870;-77
2021/12/10 06:10:15;;;;;;;4.10;2.60;;;3.50;99.90;;;;;;5113008;28;20195;-79
2021/12/10 06:12:43;;;;;;;4.67;2.47;;;3.70;99.90;;;;;;5096265;28;20205;-80
2021/12/10 06:15:10;;;;;;;5.17;2.90;;;3.70;99.90;;;;;;5114479;27;20176;-81
2021/12/10 06:17:36;;;;;;;4.97;2.70;;;3.90;99.90;;;;;;5113108;28;20638;-82
2021/12/10 06:20:05;;;;;;;3.77;2.23;;;4.00;99.90;;;;;;5113387;28;20175;-80
2021/12/10 06:22:31;;;;;;;4.60;2.73;;;4.20;99.90;;;;;;5112981;28;20172;-80
2021/12/10 06:24:56;;;;;;;7.40;2.47;;;4.30;99.90;;;;;;5112542;28;20191;-77
2021/12/10 06:27:22;;;;;;;7.13;2.67;;;4.40;99.90;;;;;;5095889;28;20521;-76
2021/12/10 06:29:48;;;;;;;4.93;2.67;;;4.30;99.90;;;;;;5095893;28;20179;-80
2021/12/10 06:32:14;;;;;;;4.03;2.50;;;4.50;99.90;;;;;;5110783;28;20246;-74
2021/12/10 06:34:40;;;;;;;4.97;3.00;;;4.50;99.90;;;;;;5101900;28;20202;-75
2021/12/10 06:37:06;;;;;;;7.57;3.03;;;4.20;99.90;;;;;;5102116;28;20254;-81
2021/12/10 06:39:33;;;;;;;8.37;3.57;;;4.10;99.90;;;;;;5098239;28;20179;-78
2021/12/10 06:41:59;;;;;;;8.23;3.57;;;4.30;99.90;;;;;;5095298;28;20168;-78
2021/12/10 06:44:30;;;;;;;4.53;2.50;;;4.40;99.90;;;;;;5093565;28;20192;-75
2021/12/10 06:46:56;;;;;;;6.93;3.00;;;4.10;99.90;;;;;;5094536;28;20626;-79
2021/12/10 06:49:22;;;;;;;6.67;3.33;;;4.20;99.90;;;;;;5102344;28;20186;-78
2021/12/10 06:51:47;;;;;;;6.47;2.93;;;4.30;99.90;;;;;;5079642;28;20187;-75
2021/12/10 06:54:13;;;;;;;5.90;3.23;;;4.30;99.90;;;;;;5098988;28;20321;-74
2021/12/10 06:56:40;;;;;;;4.30;3.07;;;4.40;99.90;;;;;;5096005;28;20267;-75
2021/12/10 06:59:07;;;;;;;9.47;3.43;;;4.40;99.90;;;;;;5100288;28;20179;-75
2021/12/10 07:01:38;;;;;;;6.93;3.30;;;4.40;99.90;;;;;;5097675;28;20312;-74
2021/12/10 07:04:11;;;;;;;5.97;3.13;;;4.20;99.90;;;;;;5098684;28;20202;-80
2021/12/10 07:06:40;;;;;;;5.60;3.00;;;4.30;99.90;;;;;;5091007;28;20191;-74
2021/12/10 07:09:11;;;;;;;7.40;3.47;;;4.50;99.90;;;;;;5092302;28;20608;-80
2021/12/10 07:11:37;;;;;;;6.83;3.10;;;4.50;99.90;;;;;;5091952;28;20170;-80
2021/12/10 07:14:03;;;;;;;4.63;3.10;;;4.60;99.90;;;;;;5093469;28;20639;-75
2021/12/10 07:16:31;;;;;;;4.77;2.90;;;4.60;99.90;;;;;;5094882;28;20176;-80
2021/12/10 07:19:00;;;;;;;6.77;3.33;;;4.60;99.90;;;;;;5104543;28;20731;-75
2021/12/10 07:21:29;;;;;;;4.97;3.10;;;4.50;99.90;;;;;;5090460;28;20618;-75
2021/12/10 07:23:55;;;;;;;4.60;3.17;;;4.50;99.90;;;;;;5099091;28;20205;-74
2021/12/10 07:26:21;;;;;;;6.13;3.93;;;4.50;99.90;;;;;;5093112;28;20283;-78
2021/12/10 07:28:47;;;;;;;4.00;2.77;;;4.30;99.90;;;;;;5114436;28;20220;-80
2021/12/10 07:31:15;;;;;;;5.37;3.50;;;4.10;99.90;;;;;;5066185;28;20197;-80
2021/12/10 07:33:42;;;;;;;4.03;3.10;;;4.10;99.90;;;;;;5071959;28;20910;-80
2021/12/10 07:36:08;;;;;;;5.53;3.73;;;4.20;99.90;;;;;;5092999;28;20712;-77
2021/12/10 07:38:34;;;;;;;6.43;3.20;;;4.40;99.90;;;;;;5093213;28;20192;-76
2021/12/10 07:41:01;;;;;;;6.97;3.67;;;4.20;99.90;;;;;;5109805;28;20171;-77
2021/12/10 07:43:27;;;;;;;6.70;3.70;;;4.40;99.90;;;;;;5074796;28;20733;-82
2021/12/10 07:45:52;;;;;;;4.57;3.60;;;4.40;99.90;;;;;;5092529;28;20259;-81
2021/12/10 07:48:22;;;;;;;6.60;3.53;;;4.60;99.90;;;;;;5093893;28;20259;-76
2021/12/10 07:51:10;;;;;;;4.87;3.03;;;4.70;99.90;;;;;;5076955;28;20175;-80
2021/12/10 07:53:38;;;;;;;9.53;3.63;;;4.70;99.90;;;;;;5099079;28;20705;-79
2021/12/10 07:56:08;;;;;;;6.50;3.83;;;4.30;99.90;;;;;;5081203;28;20199;-76
2021/12/10 07:58:34;;;;;;;6.80;3.37;;;4.50;99.90;;;;;;5111124;28;20167;-75
2021/12/10 08:01:06;;;;;;;4.80;2.93;;;4.60;99.90;;;;;;5107312;28;20203;-75
2021/12/10 08:03:35;;;;;;;7.33;3.80;;;4.80;99.90;;;;;;5092822;28;20168;-81
2021/12/10 08:06:01;;;;;;;5.93;3.70;;;5.00;99.90;;;;;;5073988;28;20168;-75
2021/12/10 08:08:28;;;;;;;11.57;5.73;;;4.90;99.90;;;;;;5076471;28;20523;-80
2021/12/10 08:10:55;;;;;;;6.27;3.83;;;4.90;99.90;;;;;;5076460;28;20311;-72
2021/12/10 08:13:24;;;;;;;5.37;3.60;;;4.90;99.90;;;;;;5108263;28;20195;-75
2021/12/10 08:15:51;;;;;;;14.27;5.60;;;4.90;99.90;;;;;;5095923;28;20183;-77
2021/12/10 08:18:18;;;;;;;5.17;3.27;;;4.60;99.90;;;;;;5112254;28;20186;-78
2021/12/10 08:20:44;;;;;;;5.63;3.10;;;4.80;99.90;;;;;;5111976;28;20175;-75
2021/12/10 08:23:13;;;;;;;13.37;7.17;;;4.90;99.90;;;;;;5078054;28;20730;-79
2021/12/10 08:25:43;;;;;;;7.23;4.27;;;4.90;99.90;;;;;;5095854;28;20191;-76
2021/12/10 08:28:13;;;;;;;8.50;3.50;;;4.80;99.90;;;;;;5114437;28;20179;-77
2021/12/10 08:30:40;;;;;;;5.73;3.70;;;4.50;99.90;;;;;;5111723;28;20662;-78
2021/12/10 08:33:13;;;;;;;6.43;3.13;;;4.50;99.90;;;;;;5111007;28;20194;-77
2021/12/10 08:35:51;;;;;;;7.67;4.23;;;4.70;99.90;;;;;;5112743;28;20507;-75
2021/12/10 08:38:17;;;;;;;6.33;3.10;;;4.80;99.90;;;;;;5092866;28;20183;-78
2021/12/10 08:40:48;;;;;;;7.47;3.43;;;4.90;99.90;;;;;;5093706;28;20178;-78
2021/12/10 08:43:16;;;;;;;6.53;3.83;;;5.00;99.90;;;;;;5112305;28;20213;-76
2021/12/10 08:45:44;;;;;;;6.03;3.70;;;5.10;99.90;;;;;;5075532;28;20175;-76
2021/12/10 08:48:10;;;;;;;6.87;3.87;;;5.20;99.90;;;;;;5111933;28;20537;-78
2021/12/10 08:50:37;;;;;;;6.57;2.70;;;5.30;99.90;;;;;;5111383;28;20194;-75
2021/12/10 08:53:07;;;;;;;6.17;3.23;;;5.20;99.90;;;;;;5110261;28;20194;-78
2021/12/10 08:55:36;;;;;;;5.17;3.23;;;5.10;99.90;;;;;;5093308;28;20668;-75
2021/12/10 08:58:03;;;;;;;4.80;3.30;;;5.20;99.90;;;;;;5077005;28;20167;-77
2021/12/10 09:00:30;;;;;;;4.47;3.13;;;5.20;99.90;;;;;;5093547;28;20175;-78
2021/12/10 09:02:57;;;;;;;7.70;4.30;;;5.20;99.90;;;;;;5093345;28;20251;-76
2021/12/10 09:05:24;;;;;;;6.67;3.67;;;5.30;99.90;;;;;;5111582;28;20167;-76
2021/12/10 09:07:50;;;;;;;6.60;3.37;;;5.40;99.90;;;;;;5110738;28;20183;-73
2021/12/10 09:10:20;;;;;;;5.90;3.30;;;5.40;99.90;;;;;;5092601;28;20171;-75
2021/12/10 09:12:47;;;;;;;4.43;2.43;;;5.40;99.90;;;;;;5111808;28;20217;-78
2021/12/10 09:15:20;;;;;;;5.77;2.50;;;5.50;99.90;;;;;;5095886;28;20174;-78
2021/12/10 09:17:52;;;;;;;7.80;2.73;;;5.30;99.90;;;;;;5094144;28;20167;-77
2021/12/10 09:20:24;;;;;;;6.67;4.10;;;5.40;99.90;;;;;;5111895;28;20501;-74
2021/12/10 09:22:53;;;;;;;7.53;3.90;;;5.40;99.90;;;;;;5111896;28;20892;-80
2021/12/10 09:25:19;;;;;;;5.83;3.20;;;5.30;99.90;;;;;;5092313;28;20199;-75
2021/12/10 09:27:45;;;;;;;7.23;2.90;;;5.50;99.90;;;;;;5110690;28;20199;-80
2021/12/10 09:30:14;;;;;;;6.97;2.60;;;5.50;99.90;;;;;;5093710;28;20626;-80
2021/12/10 09:32:41;;;;;;;5.13;2.53;;;5.70;99.90;;;;;;5112338;28;20210;-77
2021/12/10 09:35:08;;;;;;;5.30;2.57;;;5.70;99.90;;;;;;5096251;28;20504;-77
2021/12/10 09:37:35;;;;;;;6.07;2.60;;;5.80;99.90;;;;;;5111050;28;20172;-79
2021/12/10 09:40:06;;;;;;;5.70;2.40;;;5.90;99.90;;;;;;5093141;28;20163;-75
2021/12/10 09:42:33;;;;;;;4.53;2.13;;;5.90;99.90;;;;;;5093517;28;20213;-79
2021/12/10 09:44:59;;;;;;;8.53;4.97;;;5.90;99.90;;;;;;5110481;28;20179;-75
2021/12/10 09:47:26;;;;;;;3.00;2.10;;;5.90;99.90;;;;;;5110032;28;20175;-78
2021/12/10 09:49:54;;;;;;;2.87;1.83;;;5.80;99.90;;;;;;5094163;28;20179;-78
2021/12/10 09:52:26;;;;;;;2.63;1.90;;;5.80;99.90;;;;;;5110831;28;20171;-74
2021/12/10 09:54:52;;;;;;;3.30;1.27;;;6.00;99.90;;;;;;5077137;28;20172;-78
2021/12/10 09:57:23;;;;;;;2.23;1.50;;;6.10;99.90;;;;;;5093329;28;20178;-78
2021/12/10 09:59:52;;;;;;;4.67;1.47;;;6.10;99.90;;;;;;5110303;28;20232;-75
2021/12/10 10:02:21;;;;;;;1.93;1.33;;;6.10;99.90;;;;;;5110174;28;20167;-79
2021/12/10 10:04:52;;;;;;;2.47;1.57;;;6.00;99.90;;;;;;5093110;28;20171;-79
2021/12/10 10:07:23;;;;;;;3.17;1.37;;;6.20;99.90;;;;;;5093353;28;20170;-75
2021/12/10 10:09:52;;;;;;;3.53;1.50;;;6.10;99.90;;;;;;5093422;28;20168;-75
2021/12/10 10:12:29;;;;;;;2.93;1.50;;;6.20;99.90;;;;;;5111454;28;20523;-78
2021/12/10 10:14:58;;;;;;;1.93;1.40;;;6.20;99.90;;;;;;5094035;28;20518;-75
2021/12/10 10:17:26;;;;;;;2.07;1.30;;;6.30;99.90;;;;;;5111064;28;20270;-75
2021/12/10 10:19:53;;;;;;;2.60;1.30;;;6.20;99.90;;;;;;5110042;28;20174;-76
2021/12/10 10:22:24;;;;;;;4.40;1.47;;;6.30;99.90;;;;;;5112704;28;20171;-76
2021/12/10 10:24:52;;;;;;;2.10;1.20;;;6.30;99.90;;;;;;5114854;28;20214;-76
2021/12/10 10:27:23;;;;;;;2.83;1.00;;;6.40;99.90;;;;;;5115033;28;20163;-77
2021/12/10 10:29:57;;;;;;;4.90;0.97;;;6.50;99.90;;;;;;5114647;28;20198;-77
2021/12/10 10:32:28;;;;;;;2.03;1.13;;;6.40;99.90;;;;;;5113338;28;20167;-79
2021/12/10 10:35:01;;;;;;;2.03;0.97;;;6.40;99.90;;;;;;5113189;28;20179;-78
2021/12/10 10:37:29;;;;;;;2.80;1.00;;;6.40;99.90;;;;;;5114227;28;20160;-77
2021/12/10 10:39:55;;;;;;;1.37;1.00;;;6.30;99.90;;;;;;5112965;28;20175;-76
2021/12/10 10:42:26;;;;;;;3.67;1.37;;;6.30;99.90;;;;;;5113089;28;20167;-79
2021/12/10 10:44:55;;;;;;;1.90;0.90;;;6.40;99.90;;;;;;5113306;28;20160;-77
2021/12/10 10:47:26;;;;;;;1.00;0.70;;;6.30;99.90;;;;;;5112747;28;20649;-79
2021/12/10 10:49:57;;;;;;;1.30;0.80;;;6.30;99.90;;;;;;5116145;28;20195;-75
2021/12/10 10:52:46;;;;;;;1.03;0.70;;;6.40;99.90;;;;;;5115136;28;20862;-79
2021/12/10 10:55:21;;;;;;;3.53;1.20;;;6.50;99.90;;;;;;5112846;28;20626;-77
2021/12/10 10:58:11;;;;;;;2.70;0.77;;;6.60;99.90;;;;;;5094289;28;20178;-79
2021/12/10 11:01:03;;;;;;;3.43;1.00;;;6.80;99.90;;;;;;5092456;28;20332;-75
2021/12/10 11:03:51;;;;;;;2.47;1.27;;;6.70;99.90;;;;;;5106653;28;20658;-79
2021/12/10 11:06:33;;;;;;;2.37;0.87;;;6.70;99.90;;;;;;5111214;28;20355;-78
2021/12/10 11:09:14;;;;;;;2.73;1.10;;;6.80;99.90;;;;;;5097000;28;20178;-78
2021/12/10 11:12:01;;;;;;;2.88;1.05;;;6.80;99.90;;;;;;5112635;28;20403;-79
2021/12/10 11:14:29;;;;;;;1.50;0.80;;;6.80;99.90;;;;;;5095284;28;20187;-76
2021/12/10 11:17:07;;;;;;;2.27;1.30;;;6.70;99.90;;;;;;5095922;28;20174;-80
2021/12/10 11:19:34;;;;;;;5.07;2.87;;;6.70;99.90;;;;;;5113122;28;20171;-79
2021/12/10 11:22:12;;;;;;;2.67;1.40;;;6.60;99.90;;;;;;5095274;28;20195;-77
2021/12/10 11:24:54;;;;;;;3.77;1.30;;;6.70;99.90;;;;;;5112246;28;20199;-75
2021/12/10 11:27:22;;;;;;;4.33;1.20;;;6.70;99.90;;;;;;5111957;28;20182;-76
2021/12/10 11:29:50;;;;;;;2.23;0.80;;;6.90;99.90;;;;;;5112099;28;20163;-78
2021/12/10 11:32:39;;;;;;;2.10;1.03;;;6.60;99.90;;;;;;5111779;28;20171;-76
2021/12/10 11:35:13;;;;;;;2.57;1.20;;;6.60;99.90;;;;;;5087324;28;20195;-79
2021/12/10 11:37:56;;;;;;;4.00;1.03;;;6.70;99.90;;;;;;5100217;28;20714;-78
2021/12/10 11:40:35;;;;;;;4.30;1.40;;;6.70;99.90;;;;;;5074892;28;20221;-77
2021/12/10 11:46:16;;;;;;;2.20;0.83;;;6.70;99.90;;;;;;5097207;28;20258;-81
2021/12/10 11:48:47;;;;;;;1.13;0.50;;;6.50;99.90;;;;;;5063684;28;20175;-75
2021/12/10 11:51:12;;;;;;;1.37;0.97;;;6.20;99.90;;;;;;5095839;28;20179;-82
2021/12/10 11:53:52;;;;;;;2.30;1.00;;;6.30;99.90;;;;;;5112361;28;20191;-82
2021/12/10 11:56:22;;;;;;;1.30;0.83;;;6.30;99.90;;;;;;5113048;28;20163;-78
2021/12/10 11:59:03;;;;;;;2.80;1.70;;;6.30;99.90;;;;;;5094819;28;20196;-82
2021/12/10 12:01:29;;;;;;;1.77;0.60;;;6.10;99.90;;;;;;5113428;28;20153;-78
2021/12/10 12:03:55;;;;;;;1.33;0.80;;;6.10;99.90;;;;;;5111402;28;20537;-76
2021/12/10 12:06:21;;;;;;;1.30;0.87;;;6.10;99.90;;;;;;5112294;28;20175;-76
2021/12/10 12:08:47;;;;;;;1.60;1.07;;;6.00;99.90;;;;;;5096932;28;20187;-78
2021/12/10 12:11:13;;;;;;;1.10;0.70;;;5.90;99.90;;;;;;5113787;28;20186;-81
2021/12/10 12:13:44;;;;;;;3.77;1.00;;;5.80;99.90;;;;;;5080529;28;20661;-81
2021/12/10 12:16:16;;;;;;;1.33;0.70;;;5.70;99.90;;;;;;5112270;28;20239;-82
2021/12/10 12:18:48;;;;;;;1.77;1.23;;;5.70;99.90;;;;;;5077905;28;20191;-82
2021/12/10 12:27:14;;;;;;;6.40;3.00;;;5.80;99.90;;;;;;5112273;28;20197;-78
2021/12/10 12:29:48;;;;;;;2.40;1.13;;;5.70;99.90;;;;;;5093747;28;20178;-78
2021/12/10 12:32:17;;;;;;;2.33;0.93;;;5.60;99.90;;;;;;5112529;28;20261;-76
2021/12/10 12:34:43;;;;;;;1.43;0.90;;;5.60;99.90;;;;;;5093675;28;20242;-77
2021/12/10 12:37:11;;;;;;;1.17;0.87;;;5.70;99.90;;;;;;5111204;28;20308;-77
2021/12/10 12:39:48;;;;;;;2.37;0.80;;;5.70;99.90;;;;;;5110369;28;20179;-77
2021/12/10 12:42:23;;;;;;;2.10;0.87;;;5.70;99.90;;;;;;5111554;28;20203;-76
2021/12/10 12:45:07;;;;;;;3.30;1.10;;;5.60;99.90;;;;;;5110274;28;20190;-72
2021/12/10 12:47:36;;;;;;;1.87;1.23;;;5.60;99.90;;;;;;5077763;28;20194;-75
2021/12/10 12:50:09;;;;;;;2.33;1.00;;;5.60;99.90;;;;;;5110583;28;20166;-75
2021/12/10 12:52:40;;;;;;;3.90;1.30;;;5.60;99.90;;;;;;5094072;28;20202;-74
2021/12/10 12:55:08;;;;;;;1.63;1.00;;;5.70;99.90;;;;;;5111875;28;20168;-80
2021/12/10 12:57:37;;;;;;;2.60;1.33;;;5.60;99.90;;;;;;5112978;28;20171;-79
2021/12/10 13:00:11;;;;;;;1.43;1.00;;;5.60;99.90;;;;;;5094565;28;20494;-75
2021/12/10 13:02:37;;;;;;;2.27;1.27;;;5.60;99.90;;;;;;5112242;28;20240;-79
2021/12/10 13:05:05;;;;;;;6.20;1.07;;;5.60;99.90;;;;;;5113324;28;20200;-80
2021/12/10 13:07:31;;;;;;;1.80;1.20;;;5.60;99.90;;;;;;5095069;28;20660;-81
2021/12/10 13:10:02;;;;;;;2.47;0.90;;;5.80;99.90;;;;;;5110646;28;20195;-82
2021/12/10 13:12:47;;;;;;;2.20;1.60;;;5.60;99.90;;;;;;5112716;28;20170;-74
2021/12/10 13:15:26;;;;;;;1.23;1.03;;;5.60;99.90;;;;;;5112176;28;20152;-80
2021/12/10 13:17:59;;;;;;;2.10;1.10;;;5.60;99.90;;;;;;5111072;28;20259;-80
2021/12/10 13:20:33;;;;;;;2.40;1.10;;;5.60;99.90;;;;;;5110842;28;20172;-75
2021/12/10 13:23:04;;;;;;;1.10;0.90;;;5.70;99.90;;;;;;5094222;28;20575;-73
2021/12/10 13:25:32;;;;;;;1.07;0.90;;;5.70;99.90;;;;;;5110267;28;20191;-73
2021/12/10 13:28:00;;;;;;;1.17;0.70;;;5.70;99.90;;;;;;5110296;28;20183;-74